createdAt,value
2022-10-18T00:00:02.048Z,100
2022-10-18T00:01:01.668Z,100
2022-10-18T00:02:01.853Z,100
2022-10-18T00:03:01.629Z,100
2022-10-18T00:04:01.652Z,100
2022-10-18T00:05:01.447Z,100
2022-10-18T00:06:02.555Z,100
2022-10-18T00:07:02.353Z,100
2022-10-18T00:08:02.435Z,100
2022-10-18T00:09:02.293Z,100
2022-10-18T00:10:02.295Z,100
2022-10-18T00:11:02.117Z,100
2022-10-18T00:12:02.059Z,100
2022-10-18T00:13:02.121Z,100
2022-10-18T00:14:01.913Z,100
2022-10-18T00:15:01.915Z,100
2022-10-18T00:16:02.534Z,100
2022-10-18T00:17:02.350Z,100
2022-10-18T00:18:02.470Z,100
2022-10-18T00:19:02.259Z,100
2022-10-18T00:20:02.427Z,100
2022-10-18T00:21:02.112Z,100
2022-10-18T00:22:02.100Z,100
2022-10-18T00:23:02.112Z,100
2022-10-18T00:24:01.923Z,100
2022-10-18T00:25:01.949Z,100
2022-10-18T00:26:01.759Z,100
2022-10-18T00:27:01.833Z,100
2022-10-18T00:28:01.604Z,100
2022-10-18T00:29:01.808Z,100
2022-10-18T00:30:01.699Z,100
2022-10-18T00:31:01.568Z,100
2022-10-18T00:32:01.609Z,100
2022-10-18T00:33:02.531Z,100
2022-10-18T00:34:02.392Z,100
2022-10-18T00:35:02.493Z,100
2022-10-18T00:36:02.291Z,100
2022-10-18T00:37:02.406Z,100
2022-10-18T00:38:02.171Z,100
2022-10-18T00:39:02.264Z,100
2022-10-18T00:40:02.049Z,100
2022-10-18T00:41:01.941Z,100
2022-10-18T00:42:01.996Z,100
2022-10-18T00:43:01.869Z,100
2022-10-18T00:44:01.868Z,100
2022-10-18T00:45:01.695Z,100
2022-10-18T00:46:01.675Z,100
2022-10-18T00:47:01.686Z,100
2022-10-18T00:48:01.552Z,100
2022-10-18T00:49:01.647Z,100
2022-10-18T00:50:02.504Z,100
2022-10-18T00:51:02.391Z,100
2022-10-18T00:52:02.465Z,100
2022-10-18T00:53:02.258Z,100
2022-10-18T00:54:02.447Z,100
2022-10-18T00:55:02.168Z,100
2022-10-18T00:56:02.191Z,100
2022-10-18T00:57:01.987Z,100
2022-10-18T00:58:02.092Z,100
2022-10-18T00:59:01.979Z,100
2022-10-18T01:00:02.541Z,100
2022-10-18T01:01:01.502Z,100
2022-10-18T01:02:02.702Z,100
2022-10-18T01:03:01.502Z,100
2022-10-18T01:04:02.615Z,100
2022-10-18T01:05:02.475Z,100
2022-10-18T01:06:02.626Z,100
2022-10-18T01:07:02.364Z,100
2022-10-18T01:08:02.511Z,100
2022-10-18T01:09:02.269Z,100
2022-10-18T01:10:02.398Z,100
2022-10-18T01:11:02.234Z,100
2022-10-18T01:12:02.275Z,100
2022-10-18T01:13:02.060Z,100
2022-10-18T01:14:02.039Z,100
2022-10-18T01:15:02.022Z,100
2022-10-18T01:16:01.766Z,100
2022-10-18T01:17:01.862Z,100
2022-10-18T01:18:01.669Z,100
2022-10-18T01:19:01.665Z,100
2022-10-18T01:20:01.501Z,100
2022-10-18T01:21:02.541Z,100
2022-10-18T01:22:02.521Z,100
2022-10-18T01:23:02.373Z,100
2022-10-18T01:24:02.291Z,100
2022-10-18T01:26:02.146Z,100
2022-10-18T01:27:02.200Z,100
2022-10-18T01:28:02.275Z,100
2022-10-18T01:29:02.172Z,100
2022-10-18T01:30:02.083Z,100
2022-10-18T01:31:01.808Z,100
2022-10-18T01:32:01.813Z,100
2022-10-18T01:33:01.652Z,100
2022-10-18T01:35:01.517Z,100
2022-10-18T01:36:02.626Z,100
2022-10-18T01:37:02.387Z,100
2022-10-18T01:38:02.429Z,100
2022-10-18T01:39:02.321Z,100
2022-10-18T01:40:02.303Z,100
2022-10-18T01:41:02.396Z,100
2022-10-18T01:42:02.114Z,100
2022-10-18T01:43:02.371Z,100
2022-10-18T01:44:02.341Z,100
2022-10-18T01:45:02.199Z,100
2022-10-18T01:46:02.281Z,100
2022-10-18T01:47:02.363Z,100
2022-10-18T01:48:02.130Z,100
2022-10-18T01:49:02.122Z,100
2022-10-18T01:50:01.969Z,100
2022-10-18T01:51:01.916Z,100
2022-10-18T01:52:02.140Z,100
2022-10-18T01:53:01.967Z,100
2022-10-18T01:54:01.900Z,100
2022-10-18T01:55:02.580Z,100
2022-10-18T01:56:02.407Z,100
2022-10-18T01:57:02.784Z,100
2022-10-18T01:58:01.682Z,100
2022-10-18T01:59:01.582Z,100
2022-10-18T02:00:01.671Z,100
2022-10-18T02:01:02.301Z,100
2022-10-18T02:02:02.133Z,100
2022-10-18T02:03:02.145Z,100
2022-10-18T02:04:01.976Z,100
2022-10-18T02:05:01.919Z,100
2022-10-18T02:06:02.001Z,100
2022-10-18T02:07:02.497Z,100
2022-10-18T02:08:23.053Z,100
2022-10-18T02:09:01.622Z,100
2022-10-18T02:10:01.907Z,100
2022-10-18T02:11:01.748Z,100
2022-10-18T02:12:01.791Z,100
2022-10-18T02:13:01.632Z,100
2022-10-18T02:14:01.666Z,100
2022-10-18T02:15:02.550Z,100
2022-10-18T02:16:02.304Z,100
2022-10-18T02:17:02.361Z,100
2022-10-18T02:18:02.298Z,100
2022-10-18T02:19:02.157Z,100
2022-10-18T02:20:02.053Z,100
2022-10-18T02:21:01.970Z,100
2022-10-18T02:22:02.054Z,100
2022-10-18T02:23:01.760Z,100
2022-10-18T02:24:01.754Z,100
2022-10-18T02:25:01.558Z,100
2022-10-18T02:26:01.678Z,100
2022-10-18T02:27:02.576Z,100
2022-10-18T02:28:02.421Z,100
2022-10-18T02:29:02.474Z,100
2022-10-18T02:30:02.330Z,100
2022-10-18T02:31:02.274Z,100
2022-10-18T02:32:02.310Z,100
2022-10-18T02:33:02.235Z,100
2022-10-18T02:34:02.108Z,100
2022-10-18T02:35:02.195Z,100
2022-10-18T02:36:01.960Z,100
2022-10-18T02:37:01.908Z,100
2022-10-18T02:38:01.940Z,100
2022-10-18T02:39:01.801Z,100
2022-10-18T02:40:01.782Z,100
2022-10-18T02:41:01.606Z,100
2022-10-18T02:42:01.643Z,100
2022-10-18T02:43:02.592Z,100
2022-10-18T02:44:02.429Z,100
2022-10-18T02:45:02.492Z,100
2022-10-18T02:46:02.222Z,100
2022-10-18T02:47:02.188Z,100
2022-10-18T02:48:02.239Z,100
2022-10-18T02:49:02.093Z,100
2022-10-18T02:50:02.104Z,100
2022-10-18T02:51:02.004Z,100
2022-10-18T02:52:01.915Z,100
2022-10-18T02:53:02.006Z,100
2022-10-18T02:54:01.821Z,100
2022-10-18T02:55:01.928Z,100
2022-10-18T02:56:01.670Z,100
2022-10-18T02:57:01.697Z,100
2022-10-18T02:58:01.615Z,100
2022-10-18T02:59:02.622Z,100
2022-10-18T03:00:02.410Z,100
2022-10-18T03:01:02.256Z,100
2022-10-18T03:02:02.321Z,100
2022-10-18T03:03:02.247Z,100
2022-10-18T03:04:02.089Z,100
2022-10-18T03:05:02.187Z,100
2022-10-18T03:06:01.976Z,100
2022-10-18T03:07:01.894Z,100
2022-10-18T03:08:01.883Z,100
2022-10-18T03:09:01.741Z,100
2022-10-18T03:10:01.768Z,100
2022-10-18T03:11:01.565Z,100
2022-10-18T03:12:01.930Z,100
2022-10-18T03:13:01.782Z,100
2022-10-18T03:14:01.878Z,100
2022-10-18T03:15:01.764Z,100
2022-10-18T03:16:01.533Z,100
2022-10-18T03:17:02.775Z,100
2022-10-18T03:18:01.635Z,100
2022-10-18T03:19:02.621Z,100
2022-10-18T03:20:02.538Z,100
2022-10-18T03:21:02.454Z,100
2022-10-18T03:22:02.310Z,100
2022-10-18T03:23:02.326Z,100
2022-10-18T03:24:02.264Z,100
2022-10-18T03:25:02.262Z,100
2022-10-18T03:26:02.312Z,100
2022-10-18T03:27:02.233Z,100
2022-10-18T03:28:02.041Z,100
2022-10-18T03:29:02.150Z,100
2022-10-18T03:30:02.258Z,100
2022-10-18T03:31:01.768Z,100
2022-10-18T03:32:01.798Z,100
2022-10-18T03:33:01.593Z,100
2022-10-18T03:34:01.621Z,100
2022-10-18T03:35:02.636Z,100
2022-10-18T03:36:02.424Z,100
2022-10-18T03:37:05.664Z,100
2022-10-18T03:38:02.417Z,100
2022-10-18T03:39:02.556Z,100
2022-10-18T03:40:02.354Z,100
2022-10-18T03:41:02.377Z,100
2022-10-18T03:42:02.159Z,100
2022-10-18T03:43:02.216Z,100
2022-10-18T03:44:02.044Z,100
2022-10-18T03:45:01.957Z,100
2022-10-18T03:46:02.305Z,100
2022-10-18T03:47:02.414Z,100
2022-10-18T03:48:02.271Z,100
2022-10-18T03:49:02.182Z,100
2022-10-18T03:50:02.084Z,100
2022-10-18T03:51:01.963Z,100
2022-10-18T03:52:02.062Z,100
2022-10-18T03:53:01.780Z,100
2022-10-18T03:54:01.861Z,100
2022-10-18T03:55:01.613Z,100
2022-10-18T03:56:01.647Z,100
2022-10-18T03:57:02.604Z,100
2022-10-18T03:58:02.390Z,100
2022-10-18T03:59:02.406Z,100
2022-10-18T04:00:02.275Z,100
2022-10-18T04:01:02.287Z,100
2022-10-18T04:02:02.487Z,100
2022-10-18T04:03:02.410Z,100
2022-10-18T04:04:02.254Z,100
2022-10-18T04:05:02.348Z,100
2022-10-18T04:06:02.208Z,100
2022-10-18T04:07:02.096Z,100
2022-10-18T04:08:02.107Z,100
2022-10-18T04:09:06.599Z,100
2022-10-18T04:10:01.946Z,100
2022-10-18T04:11:02.098Z,100
2022-10-18T04:12:01.880Z,100
2022-10-18T04:13:01.931Z,100
2022-10-18T04:14:01.675Z,100
2022-10-18T04:15:01.722Z,100
2022-10-18T04:16:02.514Z,100
2022-10-18T04:17:02.356Z,100
2022-10-18T04:18:02.783Z,100
2022-10-18T04:19:01.508Z,100
2022-10-18T04:20:02.608Z,100
2022-10-18T04:21:02.379Z,100
2022-10-18T04:22:02.431Z,100
2022-10-18T04:23:02.254Z,100
2022-10-18T04:24:02.284Z,100
2022-10-18T04:25:02.101Z,100
2022-10-18T04:26:02.128Z,100
2022-10-18T04:27:02.153Z,100
2022-10-18T04:28:02.060Z,100
2022-10-18T04:29:02.138Z,100
2022-10-18T04:30:02.198Z,100
2022-10-18T04:31:01.570Z,100
2022-10-18T04:32:01.656Z,100
2022-10-18T04:33:02.583Z,100
2022-10-18T04:34:02.398Z,100
2022-10-18T04:35:02.502Z,100
2022-10-18T04:36:02.307Z,100
2022-10-18T04:37:02.346Z,100
2022-10-18T04:38:02.153Z,100
2022-10-18T04:39:02.205Z,100
2022-10-18T04:40:01.998Z,100
2022-10-18T04:41:01.956Z,100
2022-10-18T04:42:01.964Z,100
2022-10-18T04:43:01.790Z,100
2022-10-18T04:44:01.759Z,100
2022-10-18T04:45:01.633Z,100
2022-10-18T04:46:01.568Z,100
2022-10-18T04:47:01.694Z,100
2022-10-18T04:48:02.628Z,100
2022-10-18T04:49:02.425Z,100
2022-10-18T04:50:02.516Z,100
2022-10-18T04:51:02.311Z,100
2022-10-18T04:52:02.376Z,100
2022-10-18T04:53:02.132Z,100
2022-10-18T04:54:02.182Z,100
2022-10-18T04:55:02.020Z,100
2022-10-18T04:56:01.981Z,100
2022-10-18T04:57:01.949Z,100
2022-10-18T04:58:01.732Z,100
2022-10-18T04:59:01.792Z,100
2022-10-18T05:00:01.534Z,100
2022-10-18T05:01:02.447Z,100
2022-10-18T05:02:05.255Z,100
2022-10-18T05:03:02.043Z,100
2022-10-18T05:04:01.975Z,100
2022-10-18T05:05:02.083Z,100
2022-10-18T05:06:03.786Z,100
2022-10-18T05:07:01.559Z,100
2022-10-18T05:08:01.599Z,100
2022-10-18T05:09:02.529Z,100
2022-10-18T05:10:02.387Z,100
2022-10-18T05:11:02.658Z,100
2022-10-18T05:12:01.574Z,100
2022-10-18T05:13:01.787Z,100
2022-10-18T05:14:01.525Z,100
2022-10-18T05:15:02.574Z,100
2022-10-18T05:16:02.296Z,100
2022-10-18T05:17:02.298Z,100
2022-10-18T05:18:02.658Z,100
2022-10-18T05:19:02.372Z,100
2022-10-18T05:20:02.573Z,100
2022-10-18T05:21:02.420Z,100
2022-10-18T05:22:02.435Z,100
2022-10-18T05:23:02.352Z,100
2022-10-18T05:24:02.316Z,100
2022-10-18T05:25:02.311Z,100
2022-10-18T05:26:02.150Z,100
2022-10-18T05:27:02.179Z,100
2022-10-18T05:28:34.379Z,100
2022-10-18T05:29:02.293Z,100
2022-10-18T05:30:06.007Z,100
2022-10-18T05:31:01.834Z,100
2022-10-18T05:32:01.871Z,100
2022-10-18T05:33:01.697Z,100
2022-10-18T05:34:01.726Z,100
2022-10-18T05:35:01.550Z,100
2022-10-18T05:36:02.561Z,100
2022-10-18T05:37:02.382Z,100
2022-10-18T05:38:02.426Z,100
2022-10-18T05:39:05.314Z,100
2022-10-18T05:40:02.065Z,100
2022-10-18T05:41:02.153Z,100
2022-10-18T05:42:01.959Z,100
2022-10-18T05:43:02.135Z,100
2022-10-18T05:44:02.188Z,100
2022-10-18T05:45:02.060Z,100
2022-10-18T05:46:01.920Z,100
2022-10-18T05:47:01.924Z,100
2022-10-18T05:48:01.700Z,100
2022-10-18T05:49:01.809Z,100
2022-10-18T05:50:01.634Z,100
2022-10-18T05:51:01.742Z,100
2022-10-18T05:52:01.517Z,100
2022-10-18T05:53:24.642Z,100
2022-10-18T05:54:01.645Z,100
2022-10-18T05:55:01.671Z,100
2022-10-18T05:56:01.511Z,100
2022-10-18T05:57:02.580Z,100
2022-10-18T05:58:02.419Z,100
2022-10-18T05:59:02.459Z,100
2022-10-18T06:00:02.318Z,100
2022-10-18T06:01:02.161Z,100
2022-10-18T06:02:02.269Z,100
2022-10-18T06:03:02.134Z,100
2022-10-18T06:04:01.991Z,100
2022-10-18T06:05:02.098Z,100
2022-10-18T06:06:01.935Z,100
2022-10-18T06:07:01.939Z,100
2022-10-18T06:08:05.339Z,100
2022-10-18T06:09:01.989Z,100
2022-10-18T06:10:02.036Z,100
2022-10-18T06:11:01.870Z,100
2022-10-18T06:12:01.966Z,100
2022-10-18T06:13:01.731Z,100
2022-10-18T06:14:01.819Z,100
2022-10-18T06:15:01.572Z,100
2022-10-18T06:16:01.592Z,100
2022-10-18T06:17:01.635Z,100
2022-10-18T06:18:02.581Z,100
2022-10-18T06:19:02.447Z,100
2022-10-18T06:20:02.470Z,100
2022-10-18T06:21:02.621Z,100
2022-10-18T06:22:02.434Z,100
2022-10-18T06:23:02.297Z,100
2022-10-18T06:24:02.276Z,100
2022-10-18T06:25:02.363Z,100
2022-10-18T06:26:02.087Z,100
2022-10-18T06:27:02.223Z,100
2022-10-18T06:28:01.991Z,100
2022-10-18T06:29:02.088Z,100
2022-10-18T06:30:02.122Z,100
2022-10-18T06:31:01.583Z,100
2022-10-18T06:32:01.675Z,100
2022-10-18T06:33:02.595Z,100
2022-10-18T06:34:02.387Z,100
2022-10-18T06:35:02.422Z,100
2022-10-18T06:36:02.275Z,100
2022-10-18T06:37:02.351Z,100
2022-10-18T06:38:02.134Z,100
2022-10-18T06:39:02.165Z,100
2022-10-18T06:40:01.991Z,100
2022-10-18T06:41:01.852Z,100
2022-10-18T06:42:01.928Z,100
2022-10-18T06:43:21.438Z,100
2022-10-18T06:44:02.815Z,100
2022-10-18T06:45:01.639Z,100
2022-10-18T06:46:02.098Z,100
2022-10-18T06:47:02.066Z,100
2022-10-18T06:48:02.141Z,100
2022-10-18T06:49:01.820Z,100
2022-10-18T06:50:01.872Z,100
2022-10-18T06:51:01.648Z,100
2022-10-18T06:52:01.626Z,100
2022-10-18T06:53:01.571Z,100
2022-10-18T06:54:18.860Z,100
2022-10-18T06:55:08.437Z,100
2022-10-18T06:56:01.855Z,100
2022-10-18T06:57:01.878Z,100
2022-10-18T06:58:01.613Z,100
2022-10-18T06:59:01.713Z,100
2022-10-18T07:00:01.517Z,100
2022-10-18T07:01:02.460Z,100
2022-10-18T07:02:02.711Z,100
2022-10-18T07:03:01.565Z,100
2022-10-18T07:04:01.629Z,100
2022-10-18T07:05:01.584Z,100
2022-10-18T07:06:02.594Z,100
2022-10-18T07:07:02.456Z,100
2022-10-18T07:08:02.436Z,100
2022-10-18T07:09:02.310Z,100
2022-10-18T07:10:02.436Z,100
2022-10-18T07:11:02.214Z,100
2022-10-18T07:12:02.284Z,100
2022-10-18T07:13:32.694Z,100
2022-10-18T07:14:02.046Z,100
2022-10-18T07:15:09.438Z,100
2022-10-18T07:16:02.025Z,100
2022-10-18T07:17:02.001Z,100
2022-10-18T07:18:02.066Z,100
2022-10-18T07:19:01.837Z,99
2022-10-18T07:20:01.845Z,100
2022-10-18T07:21:01.673Z,98
2022-10-18T07:22:01.803Z,98
2022-10-18T07:23:01.539Z,97
2022-10-18T07:24:01.703Z,97
2022-10-18T07:25:01.518Z,97
2022-10-18T07:26:02.622Z,97
2022-10-18T07:27:02.440Z,97
2022-10-18T07:28:02.482Z,95
2022-10-18T07:29:02.570Z,95
2022-10-18T07:30:01.670Z,95
2022-10-18T07:31:06.384Z,94
2022-10-18T07:32:02.127Z,93
2022-10-18T07:33:02.151Z,92
2022-10-18T07:34:02.024Z,93
2022-10-18T07:35:02.093Z,92
2022-10-18T07:36:02.056Z,93
2022-10-18T07:37:01.868Z,92
2022-10-18T07:38:01.838Z,91
2022-10-18T07:39:01.647Z,91
2022-10-18T07:40:02.065Z,90
2022-10-18T07:41:02.408Z,89
2022-10-18T07:42:02.272Z,90
2022-10-18T07:43:05.069Z,89
2022-10-18T07:44:02.033Z,89
2022-10-18T07:45:01.969Z,89
2022-10-18T07:46:02.252Z,89
2022-10-18T07:47:02.317Z,87
2022-10-18T07:48:02.385Z,86
2022-10-18T07:49:02.214Z,85
2022-10-18T07:50:02.288Z,85
2022-10-18T07:51:02.101Z,83
2022-10-18T07:52:02.035Z,83
2022-10-18T07:53:02.047Z,84
2022-10-18T07:54:01.882Z,83
2022-10-18T07:55:01.976Z,84
2022-10-18T07:56:07.330Z,83
2022-10-18T07:57:02.408Z,84
2022-10-18T07:58:02.521Z,83
2022-10-18T07:59:02.333Z,84
2022-10-18T08:00:02.375Z,83
2022-10-18T08:01:02.016Z,83
2022-10-18T08:02:02.250Z,83
2022-10-18T08:03:02.056Z,83
2022-10-18T08:04:09.050Z,82
2022-10-18T08:05:01.729Z,82
2022-10-18T08:06:01.760Z,82
2022-10-18T08:07:01.560Z,83
2022-10-18T08:08:07.243Z,83
2022-10-18T08:09:01.951Z,82
2022-10-18T08:10:01.849Z,81
2022-10-18T08:11:01.881Z,83
2022-10-18T08:12:01.723Z,82
2022-10-18T08:13:01.763Z,82
2022-10-18T08:14:01.615Z,83
2022-10-18T08:15:01.679Z,82
2022-10-18T08:16:01.559Z,81
2022-10-18T08:17:01.652Z,81
2022-10-18T08:18:02.622Z,80
2022-10-18T08:19:02.426Z,81
2022-10-18T08:20:30.229Z,81
2022-10-18T08:21:02.061Z,81
2022-10-18T08:22:02.054Z,80
2022-10-18T08:23:01.862Z,80
2022-10-18T08:24:02.183Z,80
2022-10-18T08:25:02.007Z,78
2022-10-18T08:26:01.945Z,78
2022-10-18T08:27:02.339Z,78
2022-10-18T08:28:02.116Z,74
2022-10-18T08:29:24.057Z,76
2022-10-18T08:30:01.811Z,76
2022-10-18T08:31:01.609Z,75
2022-10-18T08:32:01.648Z,75
2022-10-18T08:33:02.565Z,74
2022-10-18T08:34:02.385Z,71
2022-10-18T08:35:06.962Z,73
2022-10-18T08:36:02.063Z,72
2022-10-18T08:37:02.188Z,72
2022-10-18T08:38:01.911Z,71
2022-10-18T08:39:01.969Z,72
2022-10-18T08:40:02.114Z,70
2022-10-18T08:41:02.049Z,74
2022-10-18T08:42:02.072Z,72
2022-10-18T08:43:02.394Z,72
2022-10-18T08:44:07.252Z,68
2022-10-18T08:45:29.969Z,68
2022-10-18T08:46:01.710Z,69
2022-10-18T08:47:01.721Z,68
2022-10-18T08:48:01.566Z,71
2022-10-18T08:49:01.640Z,69
2022-10-18T08:50:01.497Z,70
2022-10-18T08:51:02.582Z,67
2022-10-18T08:52:02.388Z,68
2022-10-18T08:53:02.775Z,69
2022-10-18T08:54:01.509Z,68
2022-10-18T08:55:02.573Z,67
2022-10-18T08:56:02.400Z,68
2022-10-18T08:57:02.451Z,66
2022-10-18T08:58:01.511Z,67
2022-10-18T08:59:02.529Z,68
2022-10-18T09:00:02.783Z,67
2022-10-18T09:01:02.177Z,68
2022-10-18T09:02:02.287Z,66
2022-10-18T09:03:01.598Z,65
2022-10-18T09:04:03.126Z,65
2022-10-18T09:05:01.835Z,65
2022-10-18T09:06:01.800Z,65
2022-10-18T09:07:01.621Z,65
2022-10-18T09:08:01.641Z,64
2022-10-18T09:09:02.524Z,64
2022-10-18T09:10:02.425Z,64
2022-10-18T09:11:02.487Z,65
2022-10-18T09:12:02.611Z,63
2022-10-18T09:13:02.501Z,64
2022-10-18T09:14:02.380Z,63
2022-10-18T09:15:02.416Z,63
2022-10-18T09:16:01.910Z,62
2022-10-18T09:17:01.994Z,63
2022-10-18T09:18:01.774Z,62
2022-10-18T09:19:01.849Z,62
2022-10-18T09:20:01.645Z,62
2022-10-18T09:21:01.686Z,63
2022-10-18T09:22:05.139Z,61
2022-10-18T09:23:02.324Z,61
2022-10-18T09:24:02.329Z,61
2022-10-18T09:25:02.301Z,60
2022-10-18T09:26:02.098Z,60
2022-10-18T09:27:02.133Z,59
2022-10-18T09:28:01.957Z,61
2022-10-18T09:29:02.153Z,59
2022-10-18T09:30:02.308Z,60
2022-10-18T09:31:02.025Z,60
2022-10-18T09:32:01.999Z,59
2022-10-18T09:33:02.361Z,60
2022-10-18T09:34:02.262Z,60
2022-10-18T09:35:02.120Z,59
2022-10-18T09:36:02.147Z,59
2022-10-18T09:37:01.968Z,59
2022-10-18T09:38:01.907Z,57
2022-10-18T09:39:02.009Z,57
2022-10-18T09:40:01.805Z,57
2022-10-18T09:41:01.848Z,57
2022-10-18T09:42:01.657Z,59
2022-10-18T09:43:01.769Z,57
2022-10-18T09:44:01.571Z,57
2022-10-18T09:45:01.725Z,55
2022-10-18T09:46:02.494Z,54
2022-10-18T09:47:02.373Z,54
2022-10-18T09:48:02.489Z,54
2022-10-18T09:49:02.348Z,54
2022-10-18T09:50:02.456Z,54
2022-10-18T09:51:02.246Z,54
2022-10-18T09:52:02.372Z,54
2022-10-18T09:53:02.214Z,54
2022-10-18T09:54:02.341Z,53
2022-10-18T09:55:02.155Z,52
2022-10-18T09:56:02.178Z,52
2022-10-18T09:57:01.984Z,52
2022-10-18T09:58:01.894Z,53
2022-10-18T09:59:01.998Z,52
2022-10-18T10:00:01.739Z,51
2022-10-18T10:01:01.522Z,51
2022-10-18T10:02:02.749Z,51
2022-10-18T10:03:01.605Z,51
2022-10-18T10:04:01.670Z,51
2022-10-18T10:05:02.728Z,51
2022-10-18T10:06:01.602Z,50
2022-10-18T10:07:01.755Z,51
2022-10-18T10:08:01.549Z,51
2022-10-18T10:09:02.606Z,51
2022-10-18T10:10:02.391Z,51
2022-10-18T10:11:02.450Z,51
2022-10-18T10:12:02.263Z,51
2022-10-18T10:13:02.452Z,50
2022-10-18T10:14:02.289Z,50
2022-10-18T10:15:02.246Z,50
2022-10-18T10:16:02.069Z,49
2022-10-18T10:17:02.043Z,48
2022-10-18T10:18:02.177Z,49
2022-10-18T10:19:02.017Z,49
2022-10-18T10:20:01.952Z,49
2022-10-18T10:21:01.909Z,49
2022-10-18T10:22:01.682Z,50
2022-10-18T10:23:01.687Z,49
2022-10-18T10:24:01.515Z,48
2022-10-18T10:25:02.573Z,49
2022-10-18T10:26:02.429Z,49
2022-10-18T10:27:02.538Z,49
2022-10-18T10:28:02.337Z,50
2022-10-18T10:29:02.768Z,49
2022-10-18T10:30:07.406Z,50
2022-10-18T10:31:01.491Z,49
2022-10-18T10:32:02.627Z,50
2022-10-18T10:33:02.422Z,48
2022-10-18T10:34:02.490Z,49
2022-10-18T10:35:02.357Z,49
2022-10-18T10:36:02.387Z,47
2022-10-18T10:37:02.799Z,48
2022-10-18T10:38:01.691Z,48
2022-10-18T10:39:01.510Z,48
2022-10-18T10:40:21.165Z,48
2022-10-18T10:41:02.039Z,48
2022-10-18T10:42:02.084Z,48
2022-10-18T10:43:33.347Z,47
2022-10-18T10:44:01.664Z,48
2022-10-18T10:45:01.751Z,47
2022-10-18T10:46:02.525Z,48
2022-10-18T10:47:02.352Z,48
2022-10-18T10:48:02.429Z,48
2022-10-18T10:49:40.034Z,48
2022-10-18T10:50:01.817Z,48
2022-10-18T10:51:01.882Z,49
2022-10-18T10:52:26.137Z,48
2022-10-18T10:53:01.960Z,48
2022-10-18T10:54:02.051Z,48
2022-10-18T10:55:30.660Z,49
2022-10-18T10:56:02.130Z,48
2022-10-18T10:57:02.161Z,48
2022-10-18T10:58:02.005Z,48
2022-10-18T10:59:02.116Z,48
2022-10-18T11:00:02.065Z,48
2022-10-18T11:01:01.919Z,48
2022-10-18T11:02:01.894Z,48
2022-10-18T11:03:27.720Z,48
2022-10-18T11:04:01.861Z,48
2022-10-18T11:05:01.859Z,48
2022-10-18T11:06:01.576Z,47
2022-10-18T11:07:01.639Z,48
2022-10-18T11:08:02.563Z,48
2022-10-18T11:09:02.450Z,47
2022-10-18T11:10:02.541Z,47
2022-10-18T11:11:02.341Z,47
2022-10-18T11:12:02.400Z,47
2022-10-18T11:13:02.246Z,47
2022-10-18T11:14:26.433Z,47
2022-10-18T11:15:01.903Z,47
2022-10-18T11:16:01.827Z,47
2022-10-18T11:17:07.849Z,48
2022-10-18T11:18:02.084Z,48
2022-10-18T11:19:02.039Z,48
2022-10-18T11:20:02.228Z,48
2022-10-18T11:21:01.970Z,49
2022-10-18T11:22:01.956Z,47
2022-10-18T11:23:02.041Z,47
2022-10-18T11:24:01.844Z,47
2022-10-18T11:25:01.828Z,47
2022-10-18T11:26:01.682Z,47
2022-10-18T11:27:01.634Z,48
2022-10-18T11:28:01.547Z,47
2022-10-18T11:29:02.723Z,46
2022-10-18T11:30:01.518Z,49
2022-10-18T11:31:01.530Z,48
2022-10-18T11:32:02.656Z,48
2022-10-18T11:33:01.498Z,47
2022-10-18T11:34:10.595Z,47
2022-10-18T11:35:02.364Z,48
2022-10-18T11:36:04.196Z,48
2022-10-18T11:37:29.362Z,48
2022-10-18T11:38:01.815Z,48
2022-10-18T11:39:01.924Z,48
2022-10-18T11:40:01.662Z,48
2022-10-18T11:41:01.676Z,48
2022-10-18T11:42:01.507Z,47
2022-10-18T11:43:02.568Z,47
2022-10-18T11:44:03.967Z,47
2022-10-18T11:45:01.835Z,47
2022-10-18T11:46:02.039Z,47
2022-10-18T11:47:02.210Z,47
2022-10-18T11:48:02.098Z,47
2022-10-18T11:49:02.024Z,47
2022-10-18T11:50:02.146Z,47
2022-10-18T11:51:01.901Z,48
2022-10-18T11:52:09.315Z,47
2022-10-18T11:53:02.350Z,46
2022-10-18T11:54:02.202Z,48
2022-10-18T11:55:02.273Z,46
2022-10-18T11:56:02.087Z,47
2022-10-18T11:57:02.034Z,47
2022-10-18T11:58:02.162Z,47
2022-10-18T11:59:02.029Z,47
2022-10-18T12:00:01.976Z,47
2022-10-18T12:01:02.088Z,46
2022-10-18T12:02:02.112Z,47
2022-10-18T12:03:02.034Z,47
2022-10-18T12:04:02.010Z,47
2022-10-18T12:05:25.176Z,48
2022-10-18T12:06:01.918Z,48
2022-10-18T12:07:01.981Z,47
2022-10-18T12:08:01.891Z,47
2022-10-18T12:09:01.842Z,47
2022-10-18T12:10:01.627Z,48
2022-10-18T12:11:06.678Z,48
2022-10-18T12:12:01.689Z,49
2022-10-18T12:13:01.740Z,48
2022-10-18T12:14:01.535Z,48
2022-10-18T12:15:02.563Z,48
2022-10-18T12:16:02.231Z,47
2022-10-18T12:17:43.105Z,47
2022-10-18T12:18:02.582Z,47
2022-10-18T12:19:02.457Z,47
2022-10-18T12:20:02.546Z,48
2022-10-18T12:21:02.797Z,47
2022-10-18T12:22:01.773Z,47
2022-10-18T12:23:01.666Z,47
2022-10-18T12:24:01.629Z,48
2022-10-18T12:25:01.485Z,48
2022-10-18T12:26:02.555Z,48
2022-10-18T12:27:02.440Z,48
2022-10-18T12:28:02.502Z,48
2022-10-18T12:29:02.483Z,49
2022-10-18T12:30:02.444Z,49
2022-10-18T12:31:01.959Z,49
2022-10-18T12:32:02.119Z,49
2022-10-18T12:33:28.536Z,49
2022-10-18T12:34:01.819Z,49
2022-10-18T12:35:01.846Z,49
2022-10-18T12:36:01.656Z,49
2022-10-18T12:37:01.650Z,50
2022-10-18T12:38:01.494Z,49
2022-10-18T12:39:02.558Z,50
2022-10-18T12:40:14.450Z,49
2022-10-18T12:41:01.780Z,49
2022-10-18T12:42:01.822Z,49
2022-10-18T12:43:01.597Z,48
2022-10-18T12:44:01.632Z,49
2022-10-18T12:45:02.630Z,50
2022-10-18T12:46:02.069Z,49
2022-10-18T12:47:02.141Z,49
2022-10-18T12:48:01.957Z,49
2022-10-18T12:49:01.850Z,51
2022-10-18T12:50:01.919Z,49
2022-10-18T12:51:01.668Z,50
2022-10-18T12:52:01.628Z,50
2022-10-18T12:53:01.505Z,51
2022-10-18T12:54:02.569Z,50
2022-10-18T12:55:02.484Z,50
2022-10-18T12:56:02.570Z,51
2022-10-18T12:57:02.345Z,50
2022-10-18T12:58:02.455Z,50
2022-10-18T12:59:02.221Z,50
2022-10-18T13:00:02.276Z,50
2022-10-18T13:01:01.989Z,50
2022-10-18T13:02:02.196Z,51
2022-10-18T13:03:02.157Z,51
2022-10-18T13:04:02.012Z,51
2022-10-18T13:05:01.984Z,51
2022-10-18T13:06:06.981Z,52
2022-10-18T13:07:01.771Z,52
2022-10-18T13:08:01.830Z,52
2022-10-18T13:09:01.601Z,52
2022-10-18T13:10:01.631Z,52
2022-10-18T13:11:02.531Z,53
2022-10-18T13:12:02.624Z,53
2022-10-18T13:13:36.176Z,53
2022-10-18T13:14:02.190Z,53
2022-10-18T13:15:25.833Z,53
2022-10-18T13:16:01.704Z,54
2022-10-18T13:17:01.671Z,53
2022-10-18T13:18:01.530Z,53
2022-10-18T13:19:02.624Z,53
2022-10-18T13:20:26.621Z,54
2022-10-18T13:21:02.425Z,54
2022-10-18T13:22:02.482Z,53
2022-10-18T13:23:02.402Z,53
2022-10-18T13:24:02.442Z,55
2022-10-18T13:25:02.343Z,54
2022-10-18T13:26:02.432Z,53
2022-10-18T13:27:24.285Z,53
2022-10-18T13:28:02.213Z,54
2022-10-18T13:29:02.340Z,55
2022-10-18T13:30:02.384Z,54
2022-10-18T13:31:02.094Z,53
2022-10-18T13:32:02.151Z,54
2022-10-18T13:33:01.948Z,54
2022-10-18T13:34:01.910Z,53
2022-10-18T13:35:01.975Z,54
2022-10-18T13:36:01.806Z,54
2022-10-18T13:37:01.774Z,54
2022-10-18T13:38:01.598Z,54
2022-10-18T13:39:01.628Z,55
2022-10-18T13:40:02.625Z,55
2022-10-18T13:41:02.452Z,55
2022-10-18T13:42:02.464Z,55
2022-10-18T13:43:02.287Z,56
2022-10-18T13:44:02.424Z,56
2022-10-18T13:45:02.198Z,56
2022-10-18T13:46:01.900Z,57
2022-10-18T13:47:01.979Z,57
2022-10-18T13:48:01.799Z,57
2022-10-18T13:49:01.836Z,57
2022-10-18T13:50:01.579Z,57
2022-10-18T13:51:01.692Z,57
2022-10-18T13:52:02.645Z,58
2022-10-18T13:53:02.423Z,58
2022-10-18T13:54:02.552Z,57
2022-10-18T13:55:02.346Z,58
2022-10-18T13:56:02.395Z,59
2022-10-18T13:57:01.587Z,58
2022-10-18T13:58:01.664Z,58
2022-10-18T13:59:14.904Z,58
2022-10-18T14:00:02.131Z,59
2022-10-18T14:01:02.237Z,60